sensor_id;sensor_type;location;lat;lon;timestamp;pressure;altitude;pressure_sealevel;temperature;humidity
60244;BME280;46106;51.468;5.814;2023-11-18T00:00:26;102093.13;;;4.75;100.00
60244;BME280;46106;51.468;5.814;2023-11-18T00:02:52;102090.44;;;4.75;100.00
60244;BME280;46106;51.468;5.814;2023-11-18T00:05:17;102098.47;;;4.78;100.00
60244;BME280;46106;51.468;5.814;2023-11-18T00:07:43;102091.53;;;4.70;100.00
60244;BME280;46106;51.468;5.814;2023-11-18T00:10:09;102093.22;;;4.74;100.00
60244;BME280;46106;51.468;5.814;2023-11-18T00:12:35;102094.97;;;4.75;100.00
60244;BME280;46106;51.468;5.814;2023-11-18T00:15:04;102096.66;;;4.79;100.00
60244;BME280;46106;51.468;5.814;2023-11-18T00:17:31;102094.72;;;4.83;100.00
60244;BME280;46106;51.468;5.814;2023-11-18T00:19:57;102096.66;;;4.79;100.00
60244;BME280;46106;51.468;5.814;2023-11-18T00:22:22;102094.88;;;4.78;100.00
60244;BME280;46106;51.468;5.814;2023-11-18T00:24:48;102095.13;;;4.70;100.00
60244;BME280;46106;51.468;5.814;2023-11-18T00:27:13;102087.03;;;4.69;100.00
60244;BME280;46106;51.468;5.814;2023-11-18T00:29:41;102092.25;;;4.75;100.00
60244;BME280;46106;51.468;5.814;2023-11-18T00:32:09;102078.13;;;4.65;100.00
60244;BME280;46106;51.468;5.814;2023-11-18T00:34:36;102084.38;;;4.67;100.00
60244;BME280;46106;51.468;5.814;2023-11-18T00:37:01;102075.13;;;4.74;100.00
60244;BME280;46106;51.468;5.814;2023-11-18T00:39:27;102075.38;;;4.67;100.00
60244;BME280;46106;51.468;5.814;2023-11-18T00:41:53;102073.47;;;4.69;100.00
60244;BME280;46106;51.468;5.814;2023-11-18T00:44:19;102076.53;;;4.59;100.00
60244;BME280;46106;51.468;5.814;2023-11-18T00:46:45;102076.47;;;4.61;100.00
60244;BME280;46106;51.468;5.814;2023-11-18T00:49:10;102077.41;;;4.60;100.00
60244;BME280;46106;51.468;5.814;2023-11-18T00:51:38;102077.59;;;4.54;100.00
60244;BME280;46106;51.468;5.814;2023-11-18T00:54:04;102078.22;;;4.62;100.00
60244;BME280;46106;51.468;5.814;2023-11-18T00:56:36;102075.91;;;4.51;100.00
60244;BME280;46106;51.468;5.814;2023-11-18T00:59:02;102077.59;;;4.54;100.00
60244;BME280;46106;51.468;5.814;2023-11-18T01:01:28;102072.13;;;4.55;100.00
60244;BME280;46106;51.468;5.814;2023-11-18T01:03:53;102085.59;;;4.58;100.00
60244;BME280;46106;51.468;5.814;2023-11-18T01:06:19;102077.59;;;4.54;100.00
60244;BME280;46106;51.468;5.814;2023-11-18T01:08:45;102091.41;;;4.48;100.00
60244;BME280;46106;51.468;5.814;2023-11-18T01:11:20;102092.19;;;4.51;100.00
60244;BME280;46106;51.468;5.814;2023-11-18T01:13:48;102087.72;;;4.49;100.00
60244;BME280;46106;51.468;5.814;2023-11-18T01:16:15;102092.22;;;4.50;100.00
60244;BME280;46106;51.468;5.814;2023-11-18T01:18:42;102096.88;;;4.46;100.00
60244;BME280;46106;51.468;5.814;2023-11-18T01:21:08;102093.88;;;4.54;100.00
60244;BME280;46106;51.468;5.814;2023-11-18T01:23:38;102104.63;;;4.57;100.00
60244;BME280;46106;51.468;5.814;2023-11-18T01:26:05;102090.41;;;4.50;100.00
60244;BME280;46106;51.468;5.814;2023-11-18T01:28:34;102092.84;;;4.58;100.00
60244;BME280;46106;51.468;5.814;2023-11-18T01:31:04;102100.66;;;4.67;100.00
60244;BME280;46106;51.468;5.814;2023-11-18T01:33:30;102108.78;;;4.67;100.00
60244;BME280;46106;51.468;5.814;2023-11-18T01:35:58;102106.09;;;4.67;100.00
60244;BME280;46106;51.468;5.814;2023-11-18T01:38:23;102105.06;;;4.71;100.00
60244;BME280;46106;51.468;5.814;2023-11-18T01:40:51;102101.41;;;4.72;100.00
60244;BME280;46106;51.468;5.814;2023-11-18T01:43:18;102099.69;;;4.70;100.00
60244;BME280;46106;51.468;5.814;2023-11-18T01:45:44;102096.75;;;4.76;100.00
60244;BME280;46106;51.468;5.814;2023-11-18T01:48:09;102088.00;;;4.68;100.00
60244;BME280;46106;51.468;5.814;2023-11-18T01:50:36;102089.75;;;4.69;100.00
60244;BME280;46106;51.468;5.814;2023-11-18T01:53:03;102086.78;;;4.76;100.00
60244;BME280;46106;51.468;5.814;2023-11-18T01:55:29;102090.44;;;4.75;100.00
60244;BME280;46106;51.468;5.814;2023-11-18T01:57:55;102087.34;;;4.86;100.00
60244;BME280;46106;51.468;5.814;2023-11-18T02:00:22;102099.13;;;4.85;100.00
60244;BME280;46106;51.468;5.814;2023-11-18T02:02:48;102098.66;;;4.74;100.00
60244;BME280;46106;51.468;5.814;2023-11-18T02:05:14;102093.00;;;4.80;100.00
60244;BME280;46106;51.468;5.814;2023-11-18T02:07:41;102093.66;;;4.87;100.00
60244;BME280;46106;51.468;5.814;2023-11-18T02:10:08;102095.59;;;4.83;100.00
60244;BME280;46106;51.468;5.814;2023-11-18T02:12:44;102097.44;;;4.83;100.00
60244;BME280;46106;51.468;5.814;2023-11-18T02:15:14;102093.00;;;4.80;100.00
60244;BME280;46106;51.468;5.814;2023-11-18T02:17:41;102092.16;;;4.78;100.00
60244;BME280;46106;51.468;5.814;2023-11-18T02:20:10;102087.00;;;4.70;100.00
60244;BME280;46106;51.468;5.814;2023-11-18T02:22:44;102093.09;;;4.77;100.00
60244;BME280;46106;51.468;5.814;2023-11-18T02:25:15;102088.56;;;4.77;100.00
60244;BME280;46106;51.468;5.814;2023-11-18T02:27:41;102087.72;;;4.75;100.00
60244;BME280;46106;51.468;5.814;2023-11-18T02:30:09;102086.88;;;4.73;100.00
60244;BME280;46106;51.468;5.814;2023-11-18T02:37:44;102106.34;;;4.86;100.00
60244;BME280;46106;51.468;5.814;2023-11-18T02:40:13;102114.38;;;4.89;100.00
60244;BME280;46106;51.468;5.814;2023-11-18T02:42:44;102113.56;;;4.87;100.00
60244;BME280;46106;51.468;5.814;2023-11-18T02:45:12;102108.91;;;4.91;100.00
60244;BME280;46106;51.468;5.814;2023-11-18T02:47:43;102097.28;;;4.87;100.00
60244;BME280;46106;51.468;5.814;2023-11-18T02:50:09;102093.66;;;4.87;100.00
60244;BME280;46106;51.468;5.814;2023-11-18T02:52:39;102084.63;;;4.86;100.00
60244;BME280;46106;51.468;5.814;2023-11-18T02:55:06;102091.91;;;4.86;100.00
60244;BME280;46106;51.468;5.814;2023-11-18T02:57:33;102087.47;;;4.83;100.00
60244;BME280;46106;51.468;5.814;2023-11-18T02:59:59;102077.16;;;4.93;100.00
60244;BME280;46106;51.468;5.814;2023-11-18T03:02:28;102070.09;;;4.89;100.00
60244;BME280;46106;51.468;5.814;2023-11-18T03:04:56;102061.09;;;4.87;100.00
60244;BME280;46106;51.468;5.814;2023-11-18T03:07:21;102058.31;;;4.88;100.00
60244;BME280;46106;51.468;5.814;2023-11-18T03:09:47;102054.53;;;4.94;100.00
60244;BME280;46106;51.468;5.814;2023-11-18T03:12:13;102067.13;;;4.95;100.00
60244;BME280;46106;51.468;5.814;2023-11-18T03:14:39;102060.78;;;4.96;100.00
60244;BME280;46106;51.468;5.814;2023-11-18T03:17:04;102043.81;;;4.89;100.00
60244;BME280;46106;51.468;5.814;2023-11-18T03:19:34;102052.53;;;4.99;100.00
60244;BME280;46106;51.468;5.814;2023-11-18T03:22:03;102051.75;;;4.95;100.00
60244;BME280;46106;51.468;5.814;2023-11-18T03:24:28;102054.47;;;4.95;100.00
60244;BME280;46106;51.468;5.814;2023-11-18T03:26:57;102046.31;;;4.95;100.00
60244;BME280;46106;51.468;5.814;2023-11-18T03:29:23;102058.16;;;4.93;100.00
60244;BME280;46106;51.468;5.814;2023-11-18T03:31:51;102066.31;;;4.93;100.00
60244;BME280;46106;51.468;5.814;2023-11-18T03:34:17;102056.47;;;4.90;100.00
60244;BME280;46106;51.468;5.814;2023-11-18T03:36:45;102059.91;;;4.95;100.00
60244;BME280;46106;51.468;5.814;2023-11-18T03:39:12;102068.09;;;4.94;100.00
60244;BME280;46106;51.468;5.814;2023-11-18T03:41:38;102074.59;;;4.88;100.00
60244;BME280;46106;51.468;5.814;2023-11-18T03:44:05;102050.19;;;4.88;100.00
60244;BME280;46106;51.468;5.814;2023-11-18T03:46:31;102052.19;;;4.83;100.00
60244;BME280;46106;51.468;5.814;2023-11-18T03:49:00;102058.31;;;4.88;100.00
60244;BME280;46106;51.468;5.814;2023-11-18T03:51:25;102042.19;;;4.84;100.00
60244;BME280;46106;51.468;5.814;2023-11-18T03:53:51;102037.03;;;4.77;100.00
60244;BME280;46106;51.468;5.814;2023-11-18T03:56:17;102044.16;;;4.80;100.00
60244;BME280;46106;51.468;5.814;2023-11-18T03:58:43;102034.31;;;4.77;100.00
60244;BME280;46106;51.468;5.814;2023-11-18T04:01:09;102025.22;;;4.78;100.00
60244;BME280;46106;51.468;5.814;2023-11-18T04:03:36;102024.22;;;4.81;100.00
60244;BME280;46106;51.468;5.814;2023-11-18T04:06:02;102018.69;;;4.84;100.00
60244;BME280;46106;51.468;5.814;2023-11-18T04:08:29;102022.28;;;4.85;100.00
60244;BME280;46106;51.468;5.814;2023-11-18T04:10:54;102005.13;;;4.84;100.00
60244;BME280;46106;51.468;5.814;2023-11-18T04:13:19;101996.69;;;4.92;100.00
60244;BME280;46106;51.468;5.814;2023-11-18T04:15:45;101999.53;;;4.89;100.00
60244;BME280;46106;51.468;5.814;2023-11-18T04:18:11;101991.56;;;4.84;100.00
60244;BME280;46106;51.468;5.814;2023-11-18T04:20:36;101983.19;;;4.90;100.00
60244;BME280;46106;51.468;5.814;2023-11-18T04:23:03;101984.25;;;4.86;100.00
60244;BME280;46106;51.468;5.814;2023-11-18T04:25:30;101988.53;;;4.92;100.00
60244;BME280;46106;51.468;5.814;2023-11-18T04:27:55;101988.78;;;4.86;100.00
60244;BME280;46106;51.468;5.814;2023-11-18T04:30:20;101989.56;;;4.89;100.00
60244;BME280;46106;51.468;5.814;2023-11-18T04:32:47;101982.41;;;4.87;100.00
60244;BME280;46106;51.468;5.814;2023-11-18T04:35:12;101984.78;;;4.96;100.00
60244;BME280;46106;51.468;5.814;2023-11-18T04:37:38;101979.25;;;4.99;100.00
60244;BME280;46106;51.468;5.814;2023-11-18T04:40:08;101973.00;;;4.97;100.00
60244;BME280;46106;51.468;5.814;2023-11-18T04:42:34;101973.09;;;4.94;100.00
60244;BME280;46106;51.468;5.814;2023-11-18T04:45:00;101973.88;;;4.97;100.00
60244;BME280;46106;51.468;5.814;2023-11-18T04:47:25;101959.38;;;4.99;100.00
60244;BME280;46106;51.468;5.814;2023-11-18T04:49:52;101960.25;;;4.99;100.00
60244;BME280;46106;51.468;5.814;2023-11-18T04:52:17;101962.09;;;4.99;100.00
60244;BME280;46106;51.468;5.814;2023-11-18T04:54:43;101946.78;;;4.96;100.00
60244;BME280;46106;51.468;5.814;2023-11-18T04:57:09;101954.81;;;4.99;100.00
60244;BME280;46106;51.468;5.814;2023-11-18T04:59:35;101955.69;;;5.00;100.00
60244;BME280;46106;51.468;5.814;2023-11-18T05:02:01;101959.22;;;5.02;100.00
60244;BME280;46106;51.468;5.814;2023-11-18T05:04:28;101952.97;;;5.00;100.00
60244;BME280;46106;51.468;5.814;2023-11-18T05:06:53;101952.03;;;5.01;100.00
60244;BME280;46106;51.468;5.814;2023-11-18T05:09:19;101951.88;;;5.05;100.00
60244;BME280;46106;51.468;5.814;2023-11-18T05:11:44;101951.94;;;5.04;100.00
60244;BME280;46106;51.468;5.814;2023-11-18T05:14:10;101947.31;;;5.06;100.00
60244;BME280;46106;51.468;5.814;2023-11-18T05:16:36;101944.56;;;5.07;100.00
60244;BME280;46106;51.468;5.814;2023-11-18T05:19:02;101939.13;;;5.07;100.00
60244;BME280;46106;51.468;5.814;2023-11-18T05:21:27;101940.75;;;5.11;100.00
60244;BME280;46106;51.468;5.814;2023-11-18T05:23:53;101936.13;;;5.15;100.00
60244;BME280;46106;51.468;5.814;2023-11-18T05:26:18;101933.25;;;5.18;100.00
60244;BME280;46106;51.468;5.814;2023-11-18T05:28:44;101926.13;;;5.15;100.00
60244;BME280;46106;51.468;5.814;2023-11-18T05:31:10;101928.78;;;5.17;100.00
60244;BME280;46106;51.468;5.814;2023-11-18T05:33:36;101916.16;;;5.16;100.00
60244;BME280;46106;51.468;5.814;2023-11-18T05:36:02;101915.91;;;5.22;100.00
60244;BME280;46106;51.468;5.814;2023-11-18T05:38:30;101904.19;;;5.22;100.00
60244;BME280;46106;51.468;5.814;2023-11-18T05:41:00;101900.38;;;5.26;100.00
60244;BME280;46106;51.468;5.814;2023-11-18T05:43:33;101904.81;;;5.28;100.00
60244;BME280;46106;51.468;5.814;2023-11-18T05:46:03;101906.44;;;5.32;100.00
60244;BME280;46106;51.468;5.814;2023-11-18T05:48:49;101909.34;;;5.28;100.00
60244;BME280;46106;51.468;5.814;2023-11-18T05:51:19;101912.84;;;5.31;100.00
60244;BME280;46106;51.468;5.814;2023-11-18T05:53:45;101908.28;;;5.32;100.00
60244;BME280;46106;51.468;5.814;2023-11-18T05:56:12;101902.91;;;5.30;100.00
60244;BME280;46106;51.468;5.814;2023-11-18T05:58:37;101910.00;;;5.34;100.00
60244;BME280;46106;51.468;5.814;2023-11-18T06:01:08;101892.19;;;5.27;100.00
60244;BME280;46106;51.468;5.814;2023-11-18T06:03:35;101896.34;;;5.36;100.00
60244;BME280;46106;51.468;5.814;2023-11-18T06:06:07;101899.16;;;5.34;100.00
60244;BME280;46106;51.468;5.814;2023-11-18T06:08:36;101894.78;;;5.30;100.00
60244;BME280;46106;51.468;5.814;2023-11-18T06:11:09;101899.97;;;5.37;100.00
60244;BME280;46106;51.468;5.814;2023-11-18T06:13:45;101890.78;;;5.39;100.00
60244;BME280;46106;51.468;5.814;2023-11-18T06:16:15;101883.78;;;5.33;100.00
60244;BME280;46106;51.468;5.814;2023-11-18T06:18:45;101878.19;;;5.38;100.00
60244;BME280;46106;51.468;5.814;2023-11-18T06:21:16;101870.78;;;5.42;100.00
60244;BME280;46106;51.468;5.814;2023-11-18T06:23:43;101860.63;;;5.47;100.00
60244;BME280;46106;51.468;5.814;2023-11-18T06:26:11;101869.63;;;5.47;100.00
60244;BME280;46106;51.468;5.814;2023-11-18T06:28:44;101879.56;;;5.48;100.00
60244;BME280;46106;51.468;5.814;2023-11-18T06:31:11;101880.56;;;5.46;100.00
60244;BME280;46106;51.468;5.814;2023-11-18T06:33:44;101889.44;;;5.51;100.00
60244;BME280;46106;51.468;5.814;2023-11-18T06:38:39;101893.03;;;5.51;100.00
60244;BME280;46106;51.468;5.814;2023-11-18T06:41:06;101893.59;;;5.60;100.00
60244;BME280;46106;51.468;5.814;2023-11-18T06:43:37;101874.00;;;5.51;100.00
60244;BME280;46106;51.468;5.814;2023-11-18T06:48:51;101878.28;;;5.57;100.00
60244;BME280;46106;51.468;5.814;2023-11-18T06:51:24;101887.06;;;5.64;100.00
60244;BME280;46106;51.468;5.814;2023-11-18T06:53:54;101883.47;;;5.63;100.00
60244;BME280;46106;51.468;5.814;2023-11-18T06:56:26;101881.63;;;5.64;100.00
60244;BME280;46106;51.468;5.814;2023-11-18T06:58:53;101878.91;;;5.64;100.00
60244;BME280;46106;51.468;5.814;2023-11-18T07:01:18;101874.38;;;5.64;100.00
60244;BME280;46106;51.468;5.814;2023-11-18T07:03:45;101874.25;;;5.67;100.00
60244;BME280;46106;51.468;5.814;2023-11-18T07:06:16;101860.63;;;5.69;100.00
60244;BME280;46106;51.468;5.814;2023-11-18T07:08:50;101867.84;;;5.68;100.00
60244;BME280;46106;51.468;5.814;2023-11-18T07:11:16;101865.19;;;5.67;100.00
60244;BME280;46106;51.468;5.814;2023-11-18T07:13:44;101868.66;;;5.70;100.00
60244;BME280;46106;51.468;5.814;2023-11-18T07:16:10;101863.09;;;5.74;100.00
60244;BME280;46106;51.468;5.814;2023-11-18T07:18:37;101860.38;;;5.74;100.00
60244;BME280;46106;51.468;5.814;2023-11-18T07:21:04;101863.09;;;5.74;100.00
60244;BME280;46106;51.468;5.814;2023-11-18T07:23:33;101855.19;;;5.69;100.00
60244;BME280;46106;51.468;5.814;2023-11-18T07:25:59;101861.47;;;5.69;100.00
60244;BME280;46106;51.468;5.814;2023-11-18T07:28:25;101868.53;;;5.74;100.00
60244;BME280;46106;51.468;5.814;2023-11-18T07:30:52;101874.09;;;5.70;100.00
60244;BME280;46106;51.468;5.814;2023-11-18T07:33:19;101869.38;;;5.76;100.00
60244;BME280;46106;51.468;5.814;2023-11-18T07:35:47;101863.44;;;5.66;100.00
60244;BME280;46106;51.468;5.814;2023-11-18T07:38:16;101861.34;;;5.73;100.00
60244;BME280;46106;51.468;5.814;2023-11-18T07:40:41;101869.75;;;5.66;100.00
60244;BME280;46106;51.468;5.814;2023-11-18T07:43:11;101864.00;;;5.74;100.00
60244;BME280;46106;51.468;5.814;2023-11-18T07:45:37;101866.03;;;5.69;100.00
60244;BME280;46106;51.468;5.814;2023-11-18T07:48:08;101862.47;;;5.67;100.00
60244;BME280;46106;51.468;5.814;2023-11-18T07:50:39;101879.28;;;5.77;100.00
60244;BME280;46106;51.468;5.814;2023-11-18T07:53:07;101876.69;;;5.74;100.00
60244;BME280;46106;51.468;5.814;2023-11-18T07:55:33;101875.06;;;5.69;100.00
60244;BME280;46106;51.468;5.814;2023-11-18T07:58:03;101884.78;;;5.75;100.00
60244;BME280;46106;51.468;5.814;2023-11-18T08:00:42;101871.81;;;5.82;100.00
60244;BME280;46106;51.468;5.814;2023-11-18T08:03:11;101884.34;;;5.86;100.00
60244;BME280;46106;51.468;5.814;2023-11-18T08:05:44;101880.88;;;5.82;100.00
60244;BME280;46106;51.468;5.814;2023-11-18T08:08:13;101878.84;;;5.87;100.00
60244;BME280;46106;51.468;5.814;2023-11-18T08:10:43;101873.47;;;5.86;100.00
60244;BME280;46106;51.468;5.814;2023-11-18T08:13:11;101882.69;;;5.82;100.00
60244;BME280;46106;51.468;5.814;2023-11-18T08:15:41;101877.00;;;5.88;100.00
60244;BME280;46106;51.468;5.814;2023-11-18T08:18:07;101892.31;;;5.91;100.00
60244;BME280;46106;51.468;5.814;2023-11-18T08:20:35;101888.53;;;5.93;100.00
60244;BME280;46106;51.468;5.814;2023-11-18T08:23:02;101886.72;;;5.94;100.00
60244;BME280;46106;51.468;5.814;2023-11-18T08:25:30;101873.28;;;5.91;100.00
60244;BME280;46106;51.468;5.814;2023-11-18T08:27:58;101864.16;;;5.92;100.00
60244;BME280;46106;51.468;5.814;2023-11-18T08:30:23;101854.19;;;5.92;100.00
60244;BME280;46106;51.468;5.814;2023-11-18T08:32:51;101865.06;;;5.92;100.00
60244;BME280;46106;51.468;5.814;2023-11-18T08:35:17;101864.09;;;5.93;100.00
60244;BME280;46106;51.468;5.814;2023-11-18T08:37:43;101865.69;;;5.99;100.00
60244;BME280;46106;51.468;5.814;2023-11-18T08:40:09;101861.94;;;6.01;100.00
60244;BME280;46106;51.468;5.814;2023-11-18T08:42:47;101857.63;;;5.97;100.00
60244;BME280;46106;51.468;5.814;2023-11-18T08:45:18;101854.69;;;6.02;100.00
60244;BME280;46106;51.468;5.814;2023-11-18T08:47:45;101836.28;;;6.09;100.00
60244;BME280;46106;51.468;5.814;2023-11-18T08:50:17;101835.31;;;6.10;100.00
60244;BME280;46106;51.468;5.814;2023-11-18T08:52:45;101834.44;;;6.09;100.00
60244;BME280;46106;51.468;5.814;2023-11-18T08:55:16;101834.22;;;6.14;100.00
60244;BME280;46106;51.468;5.814;2023-11-18T08:58:00;101830.41;;;6.18;100.00
60244;BME280;46106;51.468;5.814;2023-11-18T09:00:31;101830.41;;;6.18;100.00
60244;BME280;46106;51.468;5.814;2023-11-18T09:03:21;101826.53;;;6.23;100.00
60244;BME280;46106;51.468;5.814;2023-11-18T09:05:57;101832.66;;;6.29;100.00
60244;BME280;46106;51.468;5.814;2023-11-18T09:08:30;101817.00;;;6.34;100.00
60244;BME280;46106;51.468;5.814;2023-11-18T09:11:01;101808.84;;;6.34;100.00
60244;BME280;46106;51.468;5.814;2023-11-18T09:13:28;101815.03;;;6.37;100.00
60244;BME280;46106;51.468;5.814;2023-11-18T09:15:59;101809.31;;;6.43;100.00
60244;BME280;46106;51.468;5.814;2023-11-18T09:18:36;101810.91;;;6.48;100.00
60244;BME280;46106;51.468;5.814;2023-11-18T09:21:02;101804.31;;;6.53;100.00
60244;BME280;46106;51.468;5.814;2023-11-18T09:23:33;101795.88;;;6.59;100.00
60244;BME280;46106;51.468;5.814;2023-11-18T09:26:03;101797.47;;;6.63;100.00
60244;BME280;46106;51.468;5.814;2023-11-18T09:28:33;101784.59;;;6.67;100.00
60244;BME280;46106;51.468;5.814;2023-11-18T09:31:00;101791.59;;;6.73;100.00
60244;BME280;46106;51.468;5.814;2023-11-18T09:33:32;101787.03;;;6.73;100.00
60244;BME280;46106;51.468;5.814;2023-11-18T09:38:32;101783.22;;;6.77;100.00
60244;BME280;46106;51.468;5.814;2023-11-18T09:41:03;101770.56;;;6.76;100.00
60244;BME280;46106;51.468;5.814;2023-11-18T09:43:33;101766.81;;;6.79;100.00
60244;BME280;46106;51.468;5.814;2023-11-18T09:46:07;101765.69;;;6.83;100.00
60244;BME280;46106;51.468;5.814;2023-11-18T09:48:47;101767.47;;;6.84;100.00
60244;BME280;46106;51.468;5.814;2023-11-18T09:51:21;101756.66;;;6.83;100.00
60244;BME280;46106;51.468;5.814;2023-11-18T09:53:49;101746.50;;;6.86;100.00
60244;BME280;46106;51.468;5.814;2023-11-18T09:59:16;101722.81;;;6.88;100.00
60244;BME280;46106;51.468;5.814;2023-11-18T10:01:50;101722.81;;;6.88;100.00
60244;BME280;46106;51.468;5.814;2023-11-18T10:04:20;101716.34;;;6.91;100.00
60244;BME280;46106;51.468;5.814;2023-11-18T10:06:49;101717.22;;;6.91;100.00
60244;BME280;46106;51.468;5.814;2023-11-18T10:09:18;101699.78;;;6.95;100.00
60244;BME280;46106;51.468;5.814;2023-11-18T10:11:54;101709.53;;;6.99;100.00
60244;BME280;46106;51.468;5.814;2023-11-18T10:14:26;101712.97;;;7.03;100.00
60244;BME280;46106;51.468;5.814;2023-11-18T10:16:52;101715.69;;;7.03;100.00
60244;BME280;46106;51.468;5.814;2023-11-18T10:19:19;101717.19;;;7.10;100.00
60244;BME280;46106;51.468;5.814;2023-11-18T10:21:46;101712.59;;;7.11;100.00
60244;BME280;46106;51.468;5.814;2023-11-18T10:24:14;101708.78;;;7.15;100.00
60244;BME280;46106;51.468;5.814;2023-11-18T10:26:44;101707.81;;;7.16;100.00
60244;BME280;46106;51.468;5.814;2023-11-18T10:29:11;101707.72;;;7.17;100.00
60244;BME280;46106;51.468;5.814;2023-11-18T10:31:38;101702.19;;;7.19;100.00
60244;BME280;46106;51.468;5.814;2023-11-18T10:34:14;101702.44;;;7.14;100.00
60244;BME280;46106;51.468;5.814;2023-11-18T10:36:41;101700.19;;;7.23;100.00
60244;BME280;46106;51.468;5.814;2023-11-18T10:39:13;101691.00;;;7.25;100.00
60244;BME280;46106;51.468;5.814;2023-11-18T10:41:43;101668.16;;;7.28;100.00
60244;BME280;46106;51.468;5.814;2023-11-18T10:44:10;101652.00;;;7.25;100.00
60244;BME280;46106;51.468;5.814;2023-11-18T10:46:41;101653.41;;;7.32;100.00
60244;BME280;46106;51.468;5.814;2023-11-18T10:49:06;101661.50;;;7.33;100.00
60244;BME280;46106;51.468;5.814;2023-11-18T10:51:36;101673.03;;;7.39;100.00
60244;BME280;46106;51.468;5.814;2023-11-18T10:54:04;101664.63;;;7.43;100.00
60244;BME280;46106;51.468;5.814;2023-11-18T10:56:46;101650.09;;;7.43;100.00
60244;BME280;46106;51.468;5.814;2023-11-18T10:59:11;101655.47;;;7.44;100.00
60244;BME280;46106;51.468;5.814;2023-11-18T11:01:42;101646.44;;;7.44;100.00
60244;BME280;46106;51.468;5.814;2023-11-18T11:04:08;101649.06;;;7.45;100.00
60244;BME280;46106;51.468;5.814;2023-11-18T11:06:36;101638.19;;;7.45;100.00
60244;BME280;46106;51.468;5.814;2023-11-18T11:09:07;101630.78;;;7.47;100.00
60244;BME280;46106;51.468;5.814;2023-11-18T11:11:40;101636.78;;;7.54;100.00
60244;BME280;46106;51.468;5.814;2023-11-18T11:14:08;101632.88;;;7.60;100.00
60244;BME280;46106;51.468;5.814;2023-11-18T11:16:40;101627.59;;;7.57;100.00
60244;BME280;46106;51.468;5.814;2023-11-18T11:19:37;101628.06;;;7.65;100.00
60244;BME280;46106;51.468;5.814;2023-11-18T11:22:10;101633.66;;;7.62;100.00
60244;BME280;46106;51.468;5.814;2023-11-18T11:27:33;101627.88;;;7.68;100.00
60244;BME280;46106;51.468;5.814;2023-11-18T11:30:22;101618.66;;;7.70;100.00
60244;BME280;46106;51.468;5.814;2023-11-18T11:33:23;101605.38;;;7.64;100.00
60244;BME280;46106;51.468;5.814;2023-11-18T11:35:56;101594.19;;;7.69;100.00
60244;BME280;46106;51.468;5.814;2023-11-18T11:38:25;101587.16;;;7.65;100.00
60244;BME280;46106;51.468;5.814;2023-11-18T11:40:53;101585.16;;;7.68;100.00
60244;BME280;46106;51.468;5.814;2023-11-18T11:43:20;101579.53;;;7.71;100.00
60244;BME280;46106;51.468;5.814;2023-11-18T11:45:54;101573.13;;;7.72;100.00
60244;BME280;46106;51.468;5.814;2023-11-18T11:48:22;101560.53;;;7.70;100.00
60244;BME280;46106;51.468;5.814;2023-11-18T11:54:06;101553.16;;;7.72;100.00
60244;BME280;46106;51.468;5.814;2023-11-18T11:56:44;101539.69;;;7.69;100.00
60244;BME280;46106;51.468;5.814;2023-11-18T12:02:20;101510.69;;;7.68;100.00
60244;BME280;46106;51.468;5.814;2023-11-18T12:04:49;101501.34;;;7.72;100.00
60244;BME280;46106;51.468;5.814;2023-11-18T12:07:23;101506.03;;;7.70;100.00
60244;BME280;46106;51.468;5.814;2023-11-18T12:10:01;101504.69;;;7.77;100.00
60244;BME280;46106;51.468;5.814;2023-11-18T12:12:31;101495.03;;;7.71;100.00
60244;BME280;46106;51.468;5.814;2023-11-18T12:15:00;101470.25;;;7.76;100.00
60244;BME280;46106;51.468;5.814;2023-11-18T12:20:46;101447.66;;;7.74;100.00
60244;BME280;46106;51.468;5.814;2023-11-18T12:23:23;101436.38;;;7.80;100.00
60244;BME280;46106;51.468;5.814;2023-11-18T12:25:53;101427.50;;;7.77;100.00
60244;BME280;46106;51.468;5.814;2023-11-18T12:28:30;101418.19;;;7.81;100.00
60244;BME280;46106;51.468;5.814;2023-11-18T12:31:00;101406.22;;;7.83;100.00
60244;BME280;46106;51.468;5.814;2023-11-18T12:42:05;101374.09;;;7.88;100.00
60244;BME280;46106;51.468;5.814;2023-11-18T12:48:14;101345.88;;;7.89;100.00
60244;BME280;46106;51.468;5.814;2023-11-18T12:50:41;101352.19;;;7.90;100.00
60244;BME280;46106;51.468;5.814;2023-11-18T12:53:09;101337.50;;;7.93;100.00
60244;BME280;46106;51.468;5.814;2023-11-18T12:55:36;101327.75;;;7.88;100.00
60244;BME280;46106;51.468;5.814;2023-11-18T12:58:01;101311.56;;;7.85;100.00
60244;BME280;46106;51.468;5.814;2023-11-18T13:00:27;101293.66;;;7.81;100.00
60244;BME280;46106;51.468;5.814;2023-11-18T13:02:56;101302.44;;;7.86;100.00
60244;BME280;46106;51.468;5.814;2023-11-18T13:05:23;101281.00;;;7.80;100.00
60244;BME280;46106;51.468;5.814;2023-11-18T13:07:55;101283.53;;;7.83;100.00
60244;BME280;46106;51.468;5.814;2023-11-18T13:10:21;101274.41;;;7.84;100.00
60244;BME280;46106;51.468;5.814;2023-11-18T13:12:47;101277.22;;;7.83;100.00
60244;BME280;46106;51.468;5.814;2023-11-18T13:15:14;101286.84;;;7.74;100.00
60244;BME280;46106;51.468;5.814;2023-11-18T13:18:02;101273.22;;;7.74;100.00
60244;BME280;46106;51.468;5.814;2023-11-18T13:20:31;101275.53;;;7.80;100.00
60244;BME280;46106;51.468;5.814;2023-11-18T13:23:02;101277.41;;;7.80;100.00
60244;BME280;46106;51.468;5.814;2023-11-18T13:25:36;101250.13;;;7.80;100.00
60244;BME280;46106;51.468;5.814;2023-11-18T13:28:13;101234.66;;;7.80;100.00
60244;BME280;46106;51.468;5.814;2023-11-18T13:30:41;101235.81;;;7.76;100.00
60244;BME280;46106;51.468;5.814;2023-11-18T13:33:08;101226.66;;;7.77;100.00
60244;BME280;46106;51.468;5.814;2023-11-18T13:35:35;101211.00;;;7.66;100.00
60244;BME280;46106;51.468;5.814;2023-11-18T13:38:01;101214.97;;;7.75;100.00